Kissimmee Gateway Airport Orlando US
ICAO: KISM
IATA: ISM
Category: Medium
Scheduled Services: No

Elevation: 82 ft
TransAlt. 18000 ft.

Airport Communications:
ORLANDO APP/DEP:119.4
AWOS 3:128.775
ORLANDO CLNC DEL:119.95
CTAF:124.45
GND:121.7
TWR:124.45
UNICOM:122.95

KISM Zoom In..

Runways:

(A) RW 06 length 5001 ft width 150 ft
---- / hdg 63

(B) RW 15 length 6001 ft width 100 ft
ILS 109.75 / hdg 153

(C) RW 24 length 5001 ft width 150 ft
---- / hdg 243

(D) RW 33 length 6001 ft width 100 ft
---- / hdg 333

Location; KISM
Day. 21 / Time. 14.56 Zulu
* Altimeter: 30.12
* Temperature: 24° c. 75.2°f.
* Wind from: 140° Speed 06 kn.
Dewpoint: 22° c.
Visibility: 10 Statute Miles.
Clouds: Few 1500 ft.
Clouds: Broken 4800 ft.
Clouds: Overcast 7000 ft.

KISM 211456Z 14006KT 10SM FEW015 BKN048 OVC070 24/22 A3012 RMK AO2 SLP202 60000 T02440217 53010


Wind From 140°
Speed 06 kn.

 
 
jpsmedia.com for Web Design SOUNDCLOUD worldairports.se 2018   terms of use